createdAt,value
2022-11-29T00:00:02.889Z,4.93
2022-11-29T00:02:00.737Z,4.93
2022-11-29T00:04:01.722Z,4.91
2022-11-29T00:06:02.858Z,4.89
2022-11-29T00:08:04.367Z,4.9
2022-11-29T00:10:05.471Z,4.88
2022-11-29T00:12:06.800Z,4.89
2022-11-29T00:14:08.534Z,4.92
2022-11-29T00:16:09.937Z,4.97
2022-11-29T00:18:11.730Z,4.94
2022-11-29T00:20:13.542Z,4.93
2022-11-29T00:22:14.679Z,4.93
2022-11-29T00:24:15.741Z,4.9
2022-11-29T00:26:17.191Z,4.9
2022-11-29T00:28:18.720Z,4.9
2022-11-29T00:30:19.721Z,4.89
2022-11-29T00:32:21.735Z,4.88
2022-11-29T00:34:23.176Z,4.88
2022-11-29T00:36:24.312Z,4.91
2022-11-29T00:38:26.239Z,4.89
2022-11-29T00:40:27.721Z,4.88
2022-11-29T00:42:29.668Z,4.87
2022-11-29T00:44:30.827Z,4.9
2022-11-29T00:46:32.515Z,4.87
2022-11-29T00:48:34.347Z,4.88
2022-11-29T00:50:36.115Z,4.89
2022-11-29T00:52:38.072Z,4.88
2022-11-29T00:54:39.332Z,4.84
2022-11-29T00:56:40.545Z,4.89
2022-11-29T00:58:42.386Z,4.88
2022-11-29T01:00:43.385Z,4.89
2022-11-29T01:02:44.599Z,4.86
2022-11-29T01:04:46.456Z,4.87
2022-11-29T01:06:47.106Z,4.88
2022-11-29T01:08:48.850Z,4.87
2022-11-29T01:10:50.017Z,4.87
2022-11-29T01:12:51.197Z,4.84
2022-11-29T01:14:53.169Z,4.84
2022-11-29T01:16:55.094Z,4.85
2022-11-29T01:18:56.453Z,4.83
2022-11-29T01:20:58.104Z,4.85
2022-11-29T01:22:59.116Z,4.85
2022-11-29T01:25:00.837Z,4.84
2022-11-29T01:27:01.934Z,4.85
2022-11-29T01:29:03.002Z,4.85
2022-11-29T01:31:04.441Z,4.85
2022-11-29T01:35:07.081Z,4.9
2022-11-29T01:37:08.986Z,4.89
2022-11-29T01:39:10.482Z,4.87
2022-11-29T01:41:12.021Z,4.86
2022-11-29T01:43:13.570Z,4.87
2022-11-29T01:45:15.063Z,4.87
2022-11-29T01:47:16.894Z,4.88
2022-11-29T01:49:18.406Z,4.89
2022-11-29T01:51:20.170Z,4.91
2022-11-29T01:53:21.140Z,4.87
2022-11-29T01:55:22.629Z,4.9
2022-11-29T01:57:24.323Z,4.9
2022-11-29T01:59:25.490Z,4.89
2022-11-29T02:01:26.674Z,4.86
2022-11-29T02:03:28.138Z,4.88
2022-11-29T02:05:29.408Z,4.87
2022-11-29T02:07:30.557Z,4.86
2022-11-29T02:09:31.992Z,4.89
2022-11-29T02:11:33.803Z,4.89
2022-11-29T02:13:34.813Z,4.84
2022-11-29T02:15:36.502Z,4.86
2022-11-29T02:17:37.861Z,4.87
2022-11-29T02:19:39.107Z,4.88
2022-11-29T02:21:40.981Z,4.87
2022-11-29T02:23:42.419Z,4.87
2022-11-29T02:25:43.827Z,4.87
2022-11-29T02:27:45.106Z,4.85
2022-11-29T02:29:46.463Z,4.86
2022-11-29T02:33:49.362Z,4.87
2022-11-29T02:35:50.808Z,4.87
2022-11-29T02:37:51.969Z,4.88
2022-11-29T02:39:53.259Z,4.87
2022-11-29T02:41:54.321Z,4.87
2022-11-29T02:43:55.677Z,4.9
2022-11-29T02:45:57.335Z,4.89
2022-11-29T02:46:41.168Z,4.92
2022-11-29T02:48:42.678Z,4.88
2022-11-29T02:50:44.212Z,4.92
2022-11-29T02:52:45.458Z,4.94
2022-11-29T02:54:46.907Z,4.94
2022-11-29T02:56:47.817Z,4.91
2022-11-29T02:58:49.371Z,4.92
2022-11-29T03:00:51.208Z,4.92
2022-11-29T03:02:52.305Z,4.96
2022-11-29T03:04:53.784Z,4.95
2022-11-29T03:06:55.673Z,4.94
2022-11-29T03:08:57.237Z,4.92
2022-11-29T03:10:58.795Z,4.93
2022-11-29T03:13:00.491Z,4.94
2022-11-29T03:15:02.446Z,4.98
2022-11-29T03:17:03.709Z,4.98
2022-11-29T03:19:05.309Z,4.95
2022-11-29T03:21:06.532Z,4.93
2022-11-29T03:23:08.248Z,4.94
2022-11-29T03:25:09.982Z,4.97
2022-11-29T03:27:11.736Z,4.95
2022-11-29T03:29:13.165Z,4.95
2022-11-29T03:31:14.531Z,4.99
2022-11-29T03:33:15.696Z,4.99
2022-11-29T03:35:17.300Z,4.97
2022-11-29T03:37:19.167Z,4.98
2022-11-29T03:39:20.832Z,4.98
2022-11-29T03:41:22.759Z,4.98
2022-11-29T03:43:23.773Z,4.98
2022-11-29T03:45:25.365Z,4.97
2022-11-29T03:47:26.379Z,4.98
2022-11-29T03:49:27.621Z,4.98
2022-11-29T03:53:30.855Z,5
2022-11-29T03:55:31.854Z,5.01
2022-11-29T03:57:33.466Z,4.99
2022-11-29T03:59:34.665Z,5
2022-11-29T04:01:35.657Z,5
2022-11-29T04:03:37.032Z,5.01
2022-11-29T04:05:38.577Z,4.97
2022-11-29T04:07:40.263Z,4.98
2022-11-29T04:09:41.991Z,4.99
2022-11-29T04:11:43.085Z,4.95
2022-11-29T04:13:44.113Z,4.98
2022-11-29T04:15:46.000Z,4.97
2022-11-29T04:17:47.849Z,4.96
2022-11-29T04:19:49.436Z,4.97
2022-11-29T04:21:50.725Z,4.99
2022-11-29T04:23:52.166Z,4.98
2022-11-29T04:25:53.358Z,4.99
2022-11-29T04:27:55.126Z,4.94
2022-11-29T04:29:57.061Z,4.98
2022-11-29T04:31:58.187Z,5
2022-11-29T04:33:59.774Z,4.99
2022-11-29T04:36:01.471Z,4.98
2022-11-29T04:38:02.576Z,4.94
2022-11-29T04:40:03.863Z,4.95
2022-11-29T04:42:05.013Z,4.97
2022-11-29T04:44:06.855Z,4.93
2022-11-29T04:46:08.728Z,4.94
2022-11-29T04:48:10.639Z,4.94
2022-11-29T04:50:12.072Z,4.93
2022-11-29T04:52:13.592Z,4.96
2022-11-29T04:54:15.321Z,4.95
2022-11-29T04:56:16.774Z,4.93
2022-11-29T04:58:18.021Z,4.94
2022-11-29T05:00:19.094Z,4.99
2022-11-29T05:02:20.330Z,5.03
2022-11-29T05:04:21.419Z,4.99
2022-11-29T05:06:23.310Z,5.02
2022-11-29T05:08:25.138Z,5
2022-11-29T05:10:26.515Z,5
2022-11-29T05:12:28.037Z,5.03
2022-11-29T05:14:29.292Z,5.03
2022-11-29T05:16:30.672Z,5.02
2022-11-29T05:18:32.642Z,5.02
2022-11-29T05:20:34.248Z,4.99
2022-11-29T05:22:35.645Z,5
2022-11-29T05:24:36.874Z,5.04
2022-11-29T05:26:38.351Z,5.01
2022-11-29T05:28:39.992Z,5.01
2022-11-29T05:30:41.333Z,5.02
2022-11-29T05:32:43.289Z,5.02
2022-11-29T05:34:45.162Z,5.01
2022-11-29T05:36:46.461Z,5.02
2022-11-29T05:38:48.370Z,4.98
2022-11-29T05:40:49.892Z,5
2022-11-29T05:42:51.494Z,4.94
2022-11-29T05:44:52.813Z,4.97
2022-11-29T05:46:53.993Z,4.96
2022-11-29T05:48:55.443Z,4.96
2022-11-29T05:50:57.372Z,4.99
2022-11-29T05:52:59.071Z,4.98
2022-11-29T05:55:00.146Z,4.98
2022-11-29T05:57:01.676Z,4.96
2022-11-29T05:59:02.957Z,5
2022-11-29T06:01:04.230Z,4.99
2022-11-29T06:03:05.943Z,5
2022-11-29T06:05:07.677Z,5
2022-11-29T06:07:09.414Z,4.99
2022-11-29T06:09:10.819Z,5.02
2022-11-29T06:11:12.707Z,5.01
2022-11-29T06:13:14.071Z,5
2022-11-29T06:15:15.207Z,5.02
2022-11-29T06:17:16.794Z,5
2022-11-29T06:19:17.919Z,5
2022-11-29T06:21:19.416Z,5.01
2022-11-29T06:23:20.752Z,4.99
2022-11-29T06:25:22.107Z,5.02
2022-11-29T06:27:23.449Z,5.02
2022-11-29T06:29:25.324Z,5
2022-11-29T06:31:26.376Z,5.02
2022-11-29T06:33:28.261Z,4.97
2022-11-29T06:35:30.079Z,4.98
2022-11-29T06:37:32.029Z,4.95
2022-11-29T06:39:33.272Z,4.98
2022-11-29T06:41:34.633Z,4.99
2022-11-29T06:43:36.238Z,5.03
2022-11-29T06:45:38.036Z,4.99
2022-11-29T06:47:39.882Z,4.94
2022-11-29T06:49:40.880Z,4.94
2022-11-29T06:51:42.550Z,4.95
2022-11-29T06:53:43.897Z,4.88
2022-11-29T06:55:45.505Z,4.9
2022-11-29T06:57:46.882Z,4.87
2022-11-29T06:59:48.320Z,4.87
2022-11-29T07:01:49.499Z,4.88
2022-11-29T07:03:51.457Z,4.92
2022-11-29T07:05:53.281Z,4.95
2022-11-29T07:08:04.517Z,4.9
2022-11-29T07:09:56.459Z,4.97
2022-11-29T07:11:57.558Z,4.95
2022-11-29T07:13:58.904Z,4.95
2022-11-29T07:16:00.509Z,4.98
2022-11-29T07:18:02.297Z,4.98
2022-11-29T07:20:04.191Z,5
2022-11-29T07:22:05.639Z,4.92
2022-11-29T07:24:07.504Z,4.94
2022-11-29T07:26:08.758Z,4.93
2022-11-29T07:28:10.209Z,4.91
2022-11-29T07:30:12.151Z,4.85
2022-11-29T07:32:13.268Z,4.88
2022-11-29T07:34:14.340Z,4.86
2022-11-29T07:36:16.036Z,4.89
2022-11-29T07:38:17.749Z,4.92
2022-11-29T07:42:20.696Z,4.9
2022-11-29T07:44:22.497Z,4.94
2022-11-29T07:46:23.603Z,5.01
2022-11-29T07:48:25.232Z,5.05
2022-11-29T07:50:26.724Z,5.07
2022-11-29T07:52:28.181Z,5.01
2022-11-29T07:54:29.561Z,5
2022-11-29T07:56:31.218Z,4.97
2022-11-29T07:58:32.859Z,5.03
2022-11-29T08:00:34.233Z,5.03
2022-11-29T08:02:35.527Z,5.04
2022-11-29T08:04:37.083Z,5
2022-11-29T08:06:38.200Z,4.97
2022-11-29T08:08:43.878Z,4.98
2022-11-29T08:10:41.245Z,5.02
2022-11-29T08:12:43.131Z,5.1
2022-11-29T08:14:44.968Z,5.03
2022-11-29T08:16:46.260Z,5.09
2022-11-29T08:18:48.235Z,5.15
2022-11-29T08:20:49.528Z,5.15
2022-11-29T08:24:52.911Z,5.18
2022-11-29T08:26:54.119Z,5.25
2022-11-29T08:28:55.858Z,5.32
2022-11-29T08:30:57.480Z,5.43
2022-11-29T08:32:58.947Z,5.4
2022-11-29T08:35:00.361Z,5.32
2022-11-29T08:37:01.827Z,5.41
2022-11-29T08:39:07.648Z,5.36
2022-11-29T08:41:04.546Z,5.44
2022-11-29T08:43:05.924Z,5.5
2022-11-29T08:45:06.951Z,5.35
2022-11-29T08:47:08.341Z,5.37
2022-11-29T08:49:09.642Z,5.21
2022-11-29T08:51:11.566Z,5.31
2022-11-29T08:53:12.843Z,5.17
2022-11-29T08:55:13.950Z,5.28
2022-11-29T08:57:38.950Z,5.39
2022-11-29T08:59:16.455Z,5.37
2022-11-29T09:01:18.221Z,5.46
2022-11-29T09:03:19.926Z,5.5
2022-11-29T09:05:21.036Z,5.5
2022-11-29T09:07:22.166Z,5.57
2022-11-29T09:09:23.306Z,5.67
2022-11-29T09:11:24.891Z,5.72
2022-11-29T09:13:26.635Z,5.73
2022-11-29T09:15:27.959Z,5.52
2022-11-29T09:17:29.519Z,5.55
2022-11-29T09:19:30.872Z,5.62
2022-11-29T09:21:32.534Z,5.57
2022-11-29T09:23:34.143Z,5.62
2022-11-29T09:25:35.183Z,5.71
2022-11-29T09:27:36.885Z,5.61
2022-11-29T09:29:38.781Z,5.58
2022-11-29T09:31:40.634Z,5.65
2022-11-29T09:34:25.932Z,5.73
2022-11-29T09:36:29.030Z,5.74
2022-11-29T09:38:28.087Z,5.78
2022-11-29T09:40:29.189Z,5.82
2022-11-29T09:42:30.479Z,5.9
2022-11-29T09:44:31.857Z,6.01
2022-11-29T09:46:32.895Z,6.02
2022-11-29T09:48:34.578Z,6.01
2022-11-29T09:50:36.334Z,5.95
2022-11-29T09:52:37.488Z,6
2022-11-29T09:54:38.558Z,6.01
2022-11-29T09:56:39.686Z,6.04
2022-11-29T09:58:40.922Z,5.99
2022-11-29T10:00:42.470Z,6.05
2022-11-29T10:02:43.846Z,5.97
2022-11-29T10:04:45.599Z,5.95
2022-11-29T10:06:46.998Z,5.99
2022-11-29T10:08:48.751Z,5.96
2022-11-29T10:10:49.877Z,5.86
2022-11-29T10:12:51.007Z,5.9
2022-11-29T10:14:52.046Z,5.88
2022-11-29T10:16:53.936Z,5.87
2022-11-29T10:18:55.229Z,5.84
2022-11-29T10:20:56.295Z,5.9
2022-11-29T10:22:57.265Z,5.85
2022-11-29T10:24:58.884Z,5.89
2022-11-29T10:27:00.054Z,5.92
2022-11-29T10:29:01.741Z,5.92
2022-11-29T10:31:02.911Z,5.91
2022-11-29T10:33:04.198Z,5.89
2022-11-29T10:35:05.710Z,5.85
2022-11-29T10:37:07.218Z,5.82
2022-11-29T10:39:11.452Z,5.82
2022-11-29T10:41:10.321Z,5.88
2022-11-29T10:43:11.350Z,5.94
2022-11-29T10:45:13.272Z,5.91
2022-11-29T10:47:14.813Z,5.88
2022-11-29T10:49:16.673Z,5.86
2022-11-29T10:51:17.590Z,5.88
2022-11-29T10:53:19.099Z,5.87
2022-11-29T10:55:20.816Z,5.9
2022-11-29T10:57:22.534Z,5.8
2022-11-29T10:59:24.506Z,5.77
2022-11-29T11:01:25.499Z,5.84
2022-11-29T11:03:26.460Z,5.87
2022-11-29T11:05:27.679Z,5.9
2022-11-29T11:07:29.478Z,5.77
2022-11-29T11:09:30.396Z,5.88
2022-11-29T11:11:31.794Z,5.78
2022-11-29T11:13:41.585Z,5.72
2022-11-29T11:15:35.017Z,5.77
2022-11-29T11:17:36.313Z,5.77
2022-11-29T11:19:37.401Z,5.76
2022-11-29T11:21:38.655Z,5.71
2022-11-29T11:23:42.690Z,5.76
2022-11-29T11:25:41.058Z,5.85
2022-11-29T11:27:42.414Z,5.78
2022-11-29T11:29:44.195Z,5.77
2022-11-29T11:31:45.853Z,5.73
2022-11-29T11:33:46.851Z,5.78
2022-11-29T11:35:48.613Z,5.77
2022-11-29T11:37:50.061Z,5.84
2022-11-29T11:39:51.770Z,5.95
2022-11-29T11:41:53.041Z,5.98
2022-11-29T11:43:54.869Z,5.84
2022-11-29T11:45:56.170Z,5.9
2022-11-29T11:47:58.070Z,5.96
2022-11-29T11:49:59.924Z,5.86
2022-11-29T11:52:01.332Z,5.76
2022-11-29T11:54:02.659Z,5.75
2022-11-29T11:56:03.966Z,5.72
2022-11-29T11:58:09.649Z,5.74
2022-11-29T12:00:07.303Z,5.78
2022-11-29T12:02:07.844Z,5.87
2022-11-29T12:04:09.440Z,5.85
2022-11-29T12:06:10.570Z,5.85
2022-11-29T12:08:12.220Z,5.73
2022-11-29T12:10:13.778Z,5.77
2022-11-29T12:12:15.427Z,5.78
2022-11-29T12:14:16.469Z,5.78
2022-11-29T12:16:17.731Z,5.78
2022-11-29T12:18:19.197Z,5.8
2022-11-29T12:20:20.942Z,5.81
2022-11-29T12:22:22.541Z,5.75
2022-11-29T12:24:24.477Z,5.62
2022-11-29T12:26:55.729Z,5.65
2022-11-29T12:28:27.793Z,5.77
2022-11-29T12:30:29.546Z,5.77
2022-11-29T12:32:30.741Z,5.72
2022-11-29T12:34:31.896Z,5.74
2022-11-29T12:36:33.298Z,5.78
2022-11-29T12:38:34.259Z,5.75
2022-11-29T12:40:35.428Z,5.77
2022-11-29T12:42:37.012Z,5.8
2022-11-29T12:44:38.558Z,5.83
2022-11-29T12:46:40.551Z,5.82
2022-11-29T12:48:41.438Z,5.8
2022-11-29T12:50:43.192Z,5.82
2022-11-29T12:52:44.988Z,5.89
2022-11-29T12:54:46.871Z,5.94
2022-11-29T12:56:48.338Z,5.97
2022-11-29T12:58:50.101Z,5.85
2022-11-29T13:00:51.650Z,5.85
2022-11-29T13:02:52.832Z,5.84
2022-11-29T13:06:55.958Z,5.74
2022-11-29T13:08:57.714Z,5.73
2022-11-29T13:10:59.487Z,5.78
2022-11-29T13:13:01.368Z,5.78
2022-11-29T13:15:03.176Z,5.74
2022-11-29T13:17:05.055Z,5.74
2022-11-29T13:19:06.489Z,5.75
2022-11-29T13:21:07.827Z,5.73
2022-11-29T13:23:09.726Z,5.78
2022-11-29T13:25:10.833Z,5.81
2022-11-29T13:27:12.068Z,5.84
2022-11-29T13:29:13.094Z,5.85
2022-11-29T13:31:14.364Z,5.82
2022-11-29T13:33:15.490Z,5.83
2022-11-29T13:35:16.693Z,5.83
2022-11-29T13:37:18.084Z,5.78
2022-11-29T13:39:19.232Z,5.78
2022-11-29T13:41:20.748Z,5.79
2022-11-29T13:43:22.460Z,5.79
2022-11-29T13:45:23.875Z,5.81
2022-11-29T13:47:25.448Z,5.83
2022-11-29T13:49:26.662Z,5.76
2022-11-29T13:51:28.443Z,5.78
2022-11-29T13:53:30.249Z,5.74
2022-11-29T13:55:31.970Z,5.77
2022-11-29T13:57:47.893Z,5.73
2022-11-29T13:59:34.878Z,5.77
2022-11-29T14:01:36.446Z,5.76
2022-11-29T14:03:37.814Z,5.74
2022-11-29T14:05:39.174Z,5.72
2022-11-29T14:07:41.116Z,5.67
2022-11-29T14:09:43.011Z,5.7
2022-11-29T14:11:44.791Z,5.71
2022-11-29T14:13:46.539Z,5.65
2022-11-29T14:15:48.226Z,5.74
2022-11-29T14:17:49.321Z,5.7
2022-11-29T14:19:50.999Z,5.74
2022-11-29T14:21:52.563Z,5.73
2022-11-29T14:23:53.883Z,5.73
2022-11-29T14:25:55.495Z,5.72
2022-11-29T14:27:57.228Z,5.73
2022-11-29T14:29:58.453Z,5.72
2022-11-29T14:32:00.195Z,5.7
2022-11-29T14:34:01.199Z,5.72
2022-11-29T14:36:02.510Z,5.74
2022-11-29T14:38:04.148Z,5.68
2022-11-29T14:40:05.601Z,5.7
2022-11-29T14:42:06.733Z,5.7
2022-11-29T14:44:07.978Z,5.7
2022-11-29T14:46:09.250Z,5.7
2022-11-29T14:48:10.216Z,5.68
2022-11-29T14:50:11.895Z,5.71
2022-11-29T14:52:13.432Z,5.69
2022-11-29T14:54:15.293Z,5.67
2022-11-29T14:56:16.847Z,5.69
2022-11-29T14:58:18.491Z,5.68
2022-11-29T15:00:19.889Z,5.68
2022-11-29T15:02:21.273Z,5.61
2022-11-29T15:04:22.894Z,5.56
2022-11-29T15:06:24.026Z,5.54
2022-11-29T15:08:25.811Z,5.56
2022-11-29T15:10:27.262Z,5.56
2022-11-29T15:12:28.434Z,5.54
2022-11-29T15:14:29.825Z,5.52
2022-11-29T15:16:31.491Z,5.51
2022-11-29T15:18:33.153Z,5.49
2022-11-29T15:20:34.990Z,5.49
2022-11-29T15:22:36.618Z,5.52
2022-11-29T15:24:37.573Z,5.48
2022-11-29T15:26:38.677Z,5.49
2022-11-29T15:28:40.183Z,5.42
2022-11-29T15:30:41.796Z,5.46
2022-11-29T15:32:43.690Z,5.46
2022-11-29T15:34:45.131Z,5.46
2022-11-29T15:36:46.551Z,5.42
2022-11-29T15:38:48.316Z,5.37
2022-11-29T15:40:49.586Z,5.37
2022-11-29T15:42:50.860Z,5.39
2022-11-29T15:44:52.509Z,5.36
2022-11-29T15:46:54.033Z,5.35
2022-11-29T15:48:55.454Z,5.34
2022-11-29T15:50:56.692Z,5.31
2022-11-29T15:52:57.766Z,5.32
2022-11-29T15:54:59.124Z,5.31
2022-11-29T15:57:00.559Z,5.29
2022-11-29T15:59:01.578Z,5.26
2022-11-29T16:01:03.414Z,5.27
2022-11-29T16:03:04.737Z,5.3
2022-11-29T16:05:06.282Z,5.3
2022-11-29T16:07:07.879Z,5.27
2022-11-29T16:09:09.055Z,5.22
2022-11-29T16:11:10.461Z,5.23
2022-11-29T16:13:11.470Z,5.25
2022-11-29T16:15:13.458Z,5.25
2022-11-29T16:17:15.015Z,5.24
2022-11-29T16:17:58.858Z,5.25
2022-11-29T16:20:00.017Z,5.21
2022-11-29T16:22:00.949Z,5.21
2022-11-29T16:24:02.058Z,5.23
2022-11-29T16:26:03.547Z,5.21
2022-11-29T16:28:05.227Z,5.24
2022-11-29T16:30:06.187Z,5.22
2022-11-29T16:32:07.671Z,5.21
2022-11-29T16:34:09.028Z,5.2
2022-11-29T16:36:10.881Z,5.2
2022-11-29T16:38:12.441Z,5.21
2022-11-29T16:40:14.359Z,5.23
2022-11-29T16:42:18.392Z,5.24
2022-11-29T16:44:16.997Z,5.23
2022-11-29T16:46:18.887Z,5.25
2022-11-29T16:48:20.605Z,5.22
2022-11-29T16:50:21.634Z,5.21
2022-11-29T16:52:22.798Z,5.24
2022-11-29T16:54:24.323Z,5.19
2022-11-29T16:56:26.295Z,5.23
2022-11-29T16:58:28.022Z,5.21
2022-11-29T17:00:29.279Z,5.21
2022-11-29T17:02:30.992Z,5.18
2022-11-29T17:04:32.750Z,5.21
2022-11-29T17:06:34.486Z,5.18
2022-11-29T17:08:35.846Z,5.17
2022-11-29T17:10:37.505Z,5.17
2022-11-29T17:12:42.200Z,5.15
2022-11-29T17:14:40.860Z,5.12
2022-11-29T17:16:42.525Z,5.1
2022-11-29T17:18:43.478Z,5.07
2022-11-29T17:20:45.406Z,5.06
2022-11-29T17:22:47.123Z,5.06
2022-11-29T17:24:48.766Z,5.04
2022-11-29T17:26:50.106Z,5.02
2022-11-29T17:28:51.774Z,5.02
2022-11-29T17:30:52.937Z,4.99
2022-11-29T17:32:54.411Z,5.01
2022-11-29T17:34:56.144Z,4.99
2022-11-29T17:36:57.132Z,4.97
2022-11-29T17:38:58.408Z,4.99
2022-11-29T17:41:00.192Z,4.96
2022-11-29T17:43:01.634Z,4.94
2022-11-29T17:45:03.389Z,4.92
2022-11-29T17:47:04.661Z,4.94
2022-11-29T17:49:06.484Z,4.88
2022-11-29T17:51:22.765Z,4.9
2022-11-29T17:53:09.385Z,4.9
2022-11-29T17:55:10.979Z,4.89
2022-11-29T17:57:12.450Z,4.88
2022-11-29T17:59:14.266Z,4.88
2022-11-29T18:01:15.925Z,4.88
2022-11-29T18:03:17.813Z,4.87
2022-11-29T18:05:18.910Z,4.87
2022-11-29T18:07:20.299Z,4.86
2022-11-29T18:09:21.689Z,4.84
2022-11-29T18:11:22.775Z,4.86
2022-11-29T18:13:23.844Z,4.83
2022-11-29T18:15:25.751Z,4.84
2022-11-29T18:17:27.135Z,4.83
2022-11-29T18:19:28.567Z,4.84
2022-11-29T18:21:29.842Z,4.87
2022-11-29T18:23:31.210Z,4.85
2022-11-29T18:25:38.503Z,4.83
2022-11-29T18:27:33.793Z,4.84
2022-11-29T18:29:39.034Z,4.81
2022-11-29T18:31:37.331Z,4.82
2022-11-29T18:33:38.641Z,4.82
2022-11-29T18:35:39.914Z,4.8
2022-11-29T18:38:13.268Z,4.82
2022-11-29T18:39:42.819Z,4.83
2022-11-29T18:41:44.205Z,4.82
2022-11-29T18:43:45.412Z,4.81
2022-11-29T18:45:47.205Z,4.83
2022-11-29T18:47:48.231Z,4.84
2022-11-29T18:49:49.407Z,4.82
2022-11-29T18:51:50.777Z,4.82
2022-11-29T18:53:51.910Z,4.79
2022-11-29T18:55:53.598Z,4.82
2022-11-29T18:57:54.744Z,4.81
2022-11-29T18:59:56.592Z,4.8
2022-11-29T19:01:58.277Z,4.8
2022-11-29T19:03:59.753Z,4.79
2022-11-29T19:06:01.065Z,4.8
2022-11-29T19:08:02.580Z,4.81
2022-11-29T19:10:04.346Z,4.77
2022-11-29T19:12:05.890Z,4.79
2022-11-29T19:14:06.941Z,4.8
2022-11-29T19:16:08.027Z,4.79
2022-11-29T19:18:09.506Z,4.79
2022-11-29T19:20:10.973Z,4.81
2022-11-29T19:22:12.325Z,4.8
2022-11-29T19:24:14.263Z,4.79
2022-11-29T19:26:15.204Z,4.79
2022-11-29T19:28:16.923Z,4.79
2022-11-29T19:30:18.322Z,4.81
2022-11-29T19:32:19.457Z,4.82
2022-11-29T19:34:20.810Z,4.81
2022-11-29T19:36:21.773Z,4.82
2022-11-29T19:38:23.541Z,4.81
2022-11-29T19:40:25.003Z,4.81
2022-11-29T19:42:26.301Z,4.8
2022-11-29T19:44:29.975Z,4.81
2022-11-29T19:46:28.594Z,4.82
2022-11-29T19:48:30.285Z,4.84
2022-11-29T19:50:31.661Z,4.83
2022-11-29T19:52:32.844Z,4.83
2022-11-29T19:54:34.060Z,4.82
2022-11-29T19:56:35.561Z,4.82
2022-11-29T19:58:37.053Z,4.85
2022-11-29T20:00:38.869Z,4.83
2022-11-29T20:02:40.095Z,4.84
2022-11-29T20:04:41.769Z,4.85
2022-11-29T20:06:43.256Z,4.83
2022-11-29T20:08:44.433Z,4.84
2022-11-29T20:10:46.011Z,4.82
2022-11-29T20:12:47.339Z,4.81
2022-11-29T20:14:48.757Z,4.84
2022-11-29T20:16:50.582Z,4.83
2022-11-29T20:19:00.329Z,4.8
2022-11-29T20:20:53.747Z,4.84
2022-11-29T20:22:55.082Z,4.85
2022-11-29T20:24:56.805Z,4.84
2022-11-29T20:28:59.879Z,4.87
2022-11-29T20:31:01.471Z,4.88
2022-11-29T20:33:03.131Z,4.9
2022-11-29T20:35:04.717Z,4.92
2022-11-29T20:37:06.633Z,4.91
2022-11-29T20:39:07.680Z,4.89
2022-11-29T20:41:09.547Z,4.89
2022-11-29T20:43:10.628Z,4.93
2022-11-29T20:45:12.303Z,4.96
2022-11-29T20:47:14.187Z,4.97
2022-11-29T20:49:15.820Z,4.9
2022-11-29T20:51:17.173Z,4.92
2022-11-29T20:53:19.067Z,4.9
2022-11-29T20:55:20.895Z,4.94
2022-11-29T20:57:22.877Z,4.92
2022-11-29T20:59:24.011Z,4.91
2022-11-29T21:01:25.672Z,4.92
2022-11-29T21:03:26.849Z,4.94
2022-11-29T21:05:27.965Z,4.93
2022-11-29T21:07:29.914Z,4.95
2022-11-29T21:11:33.462Z,4.94
2022-11-29T21:13:35.321Z,4.93
2022-11-29T21:15:36.462Z,5
2022-11-29T21:17:38.329Z,4.99
2022-11-29T21:19:39.772Z,4.97
2022-11-29T21:21:41.562Z,4.95
2022-11-29T21:23:42.633Z,5.02
2022-11-29T21:25:44.409Z,4.99
2022-11-29T21:27:45.811Z,4.99
2022-11-29T21:29:47.400Z,4.98
2022-11-29T21:31:49.182Z,4.99
2022-11-29T21:33:50.383Z,4.96
2022-11-29T21:35:51.316Z,4.97
2022-11-29T21:37:52.540Z,4.98
2022-11-29T21:39:53.989Z,4.99
2022-11-29T21:41:55.130Z,5
2022-11-29T21:44:06.359Z,5
2022-11-29T21:45:58.193Z,4.96
2022-11-29T21:47:59.782Z,5.01
2022-11-29T21:50:01.236Z,4.99
2022-11-29T21:52:02.275Z,5
2022-11-29T21:54:03.543Z,4.99
2022-11-29T21:56:04.538Z,4.99
2022-11-29T21:58:06.235Z,4.96
2022-11-29T22:00:07.879Z,4.95
2022-11-29T22:02:09.118Z,4.96
2022-11-29T22:04:10.008Z,4.95
2022-11-29T22:06:11.874Z,4.92
2022-11-29T22:08:12.982Z,4.9
2022-11-29T22:10:14.696Z,4.94
2022-11-29T22:12:32.832Z,4.92
2022-11-29T22:14:17.468Z,4.92
2022-11-29T22:16:18.715Z,4.92
2022-11-29T22:18:20.181Z,4.94
2022-11-29T22:20:22.101Z,4.92
2022-11-29T22:22:25.997Z,4.95
2022-11-29T22:24:24.677Z,4.98
2022-11-29T22:26:26.272Z,4.98
2022-11-29T22:28:27.969Z,5
2022-11-29T22:30:29.157Z,5
2022-11-29T22:32:30.897Z,5.03
2022-11-29T22:34:32.270Z,5.02
2022-11-29T22:36:33.305Z,5
2022-11-29T22:38:35.221Z,5
2022-11-29T22:40:37.073Z,4.99
2022-11-29T22:42:39.044Z,4.99
2022-11-29T22:44:40.035Z,5
2022-11-29T22:46:41.974Z,4.98
2022-11-29T22:48:42.994Z,4.99
2022-11-29T22:50:44.252Z,4.98
2022-11-29T22:52:45.430Z,4.98
2022-11-29T22:54:47.248Z,4.98
2022-11-29T22:56:47.905Z,4.98
2022-11-29T22:58:49.490Z,4.94
2022-11-29T23:00:51.177Z,4.95
2022-11-29T23:02:52.917Z,4.97
2022-11-29T23:03:36.757Z,4.93
2022-11-29T23:05:37.999Z,4.95
2022-11-29T23:07:39.746Z,4.98
2022-11-29T23:09:41.156Z,4.94
2022-11-29T23:11:42.794Z,4.97
2022-11-29T23:13:44.285Z,4.94
2022-11-29T23:15:46.098Z,4.95
2022-11-29T23:17:47.859Z,4.94
2022-11-29T23:19:49.767Z,4.94
2022-11-29T23:21:51.317Z,4.97
2022-11-29T23:23:56.233Z,4.99
2022-11-29T23:25:53.674Z,4.99
2022-11-29T23:27:55.222Z,5
2022-11-29T23:29:56.418Z,4.94
2022-11-29T23:31:57.696Z,4.98
2022-11-29T23:33:58.647Z,4.98
2022-11-29T23:36:00.593Z,4.98
2022-11-29T23:38:01.980Z,4.99
2022-11-29T23:40:03.547Z,5.01
2022-11-29T23:42:05.267Z,5
2022-11-29T23:44:06.616Z,4.98
2022-11-29T23:46:07.637Z,4.99
2022-11-29T23:48:08.631Z,5.02
2022-11-29T23:50:10.078Z,4.99
2022-11-29T23:52:11.530Z,5.01
2022-11-29T23:54:13.061Z,5.03
2022-11-29T23:56:14.918Z,5
2022-11-29T23:58:16.240Z,5
